Terminal Aerodrome Forecast
Issued by NWS Jacksonville, FL

Home | Current Version | Previous Version | Text Only | Print | Product List | Glossary On
Versions: 1 2 3 4 5 6 7 8 9 10 11 12 13 14 15 16 17 18 19 20 21 22 23 24 25 26 27 28 29 30 31 32 33 34 35 36 37 38 39 40 41 42 43 44
000
FTUS42 KJAX 271422 AAF
TAFSSI
TAF AMD
KSSI 271422Z 2714/2812 VRB06KT 3SM SHRA BR SCT005 OVC030
      TEMPO 2714/2716 2SM TSRA BR BKN005 OVC020CB
     FM271600 VRB06KT 6SM SHRA BR VCTS BKN030CB
     FM271800 12007KT P6SM VCTS BKN040CB
      TEMPO 2718/2722 VRB15G25KT 3SM +TSRA BR OVC035CB
     FM280300 VRB05KT P6SM SCT020 BKN100=

USA.gov is the U.S. government's official web portal to all federal, state and local government web resources and services.